• Join FlightAware (Why Join?)
  • Login
  • US Flag 
06:15PM EDT


 

Airport Tracker/Info


-or-


 

Live Flight TrackerFlight Track Log ✈ JBU881 ✈ 07-May-2013 ✈ KJFK - TNCA / AUA

Flight Track Log - Related Links

Times and Time Zones

All times are in EDT time to prevent confusion due to time zone crossing. See the JBU881 flight status page for this flight to view local times or setup timezone preferences in your user account.

Time Position Orientation Groundspeed Altitude Reporting Facility
EDT Latitude Longitude Course Direction KTS MPH feet Rate Location/Type
07:25AM 40.6500 -73.7333 128° Southeast 180 207 1,900  Level New York TRACON
07:27AM 40.6175 -73.5953 107° East 223 257 6,000 2,340 Climbing New York Center
07:28AM 40.3689 -73.3117 131° Southeast  Level FlightAware Approximate
07:28AM 40.5644 -73.5467 145° Southeast 238 274 8,300  Level New York Center
07:29AM 40.2913 -73.1907 128° Southeast  Level FlightAware Approximate
07:29AM 40.4931 -73.4864 147° Southeast 271 312 10,800  Level New York Center
07:30AM 40.2169 -73.0664 128° Southeast  Level FlightAware Approximate
07:30AM 40.4258 -73.4183 142° Southeast 323 372 11,800  Level New York Center
07:31AM 40.1521 -72.9585 128° Southeast  Level FlightAware Approximate
07:31AM 40.3617 -73.3042 126° Southeast 351 404 14,400  Level New York Center
07:32AM 40.2992 -73.1986 128° Southeast 363 418 16,200 1,740 Climbing New York Center
07:33AM 40.2219 -73.1033 137° Southeast 375 432 17,900 1,500 Climbing New York Center
07:34AM 40.1231 -73.0431 155° Southeast 375 432 19,300 1,440 Climbing New York Center
07:35AM 40.0203 -72.9800 155° Southeast 387 445 20,900 1,500 Climbing New York Center
07:36AM 39.9150 -72.9144 154° Southeast 410 472 22,300 1,500 Climbing New York Center
07:37AM 39.8081 -72.8461 154° Southeast 423 487 23,900 1,260 Climbing New York Center
07:38AM 39.7008 -72.7836 156° South 423 487 24,900 1,020 Climbing New York Center
07:39AM 39.5914 -72.7158 154° Southeast 429 494 26,000 960 Climbing New York Center
07:40AM 39.4800 -72.6428 153° Southeast 440 506 26,900 1,020 Climbing New York Center
07:41AM 39.3644 -72.5781 157° South 445 512 28,100 1,020 Climbing New York Center
07:42AM 39.2508 -72.5053 154° Southeast 450 518 29,000 1,020 Climbing New York Center
07:43AM 39.1372 -72.4328 154° Southeast 450 518 30,300 1,200 Climbing New York Center
07:44AM 39.0233 -72.3686 156° South 450 518 31,400 900 Climbing New York Center
07:45AM 38.9117 -72.2994 154° Southeast 450 518 32,200 900 Climbing New York Center
07:46AM 38.7981 -72.2225 152° Southeast 450 518 33,300 960 Climbing New York Center
07:47AM 38.6861 -72.1614 157° South 450 518 34,100 780 Climbing New York Center
07:48AM 38.5764 -72.0956 155° Southeast 445 512 34,900 420 Climbing New York Center
07:49AM 38.4667 -72.0300 155° Southeast 435 501 35,000  Climbing New York Center
07:50AM 38.3547 -71.9750 159° South 435 501 35,000  Level New York Center
07:51AM 38.2447 -71.9017 152° Southeast 440 506 35,000 -60 Level New York Center
07:52AM 38.1350 -71.8339 154° Southeast 440 506 34,900  Descending New York Center
07:53AM 38.0231 -71.7664 155° Southeast 440 506 35,000  Climbing New York Center
07:54AM 37.9108 -71.7017 156° South 440 506 35,000  Level New York Center
07:55AM 37.7989 -71.6344 155° Southeast 440 506 35,000  Level New York Center
07:56AM 37.6928 -71.5728 155° Southeast 435 501 35,000  Level New York Center
07:57AM 37.5869 -71.5164 157° South 429 494 35,000  Level New York Center
07:58AM 37.4808 -71.4472 153° Southeast 419 482 35,000  Level New York Center
07:59AM 37.3750 -71.3808 153° Southeast 419 482 35,000  Level New York Center
08:00AM 37.2708 -71.3225 156° South 419 482 35,000  Level New York Center
08:01AM 37.1669 -71.2619 155° Southeast 419 482 35,000  Level New York Center
08:02AM 37.0733 -71.2039 154° Southeast 402 463 35,000  Level New York Center
08:04AM 36.9317 -71.1227 155° Southeast  Level FlightAware Approximate
08:11AM 36.1817 -70.6855 155° Southeast  Level FlightAware Approximate
08:12AM 36.0748 -70.6228 155° Southeast  Level FlightAware Approximate
08:13AM 35.9679 -70.5602 155° Southeast  Level FlightAware Approximate
08:14AM 35.8609 -70.4978 155° Southeast  Level FlightAware Approximate
08:15AM 35.7539 -70.4356 155° Southeast  Level FlightAware Approximate
08:16AM 35.6386 -70.4037 168° South  Level FlightAware Approximate
08:17AM 35.5230 -70.3730 168° South  Level FlightAware Approximate
08:18AM 35.4073 -70.3424 168° South  Level FlightAware Approximate
08:19AM 35.2917 -70.3119 168° South  Level FlightAware Approximate
08:19AM 35.7667 -70.4500 168° South 424 488 35,000  Level New York Oceanic (ODAPS)
08:20AM 35.1760 -70.2815 168° South  Level FlightAware Approximate
08:21AM 35.0603 -70.2512 168° South  Level FlightAware Approximate
08:22AM 34.9446 -70.2209 168° South  Level FlightAware Approximate
08:23AM 34.8290 -70.1908 168° South  Level FlightAware Approximate
08:24AM 34.7133 -70.1607 168° South  Level FlightAware Approximate
08:25AM 34.5925 -70.1437 168° South 424 488 35,000  Level FlightAware Transoceanic
08:26AM 34.4750 -70.1136 168° South 424 488 35,000  Level FlightAware Transoceanic
08:27AM 34.3575 -70.0835 168° South 424 488 35,000  Level FlightAware Transoceanic
08:28AM 34.2401 -70.0535 168° South 424 488 35,000  Level FlightAware Transoceanic
08:29AM 34.1226 -70.0236 168° South 424 488 35,000  Level FlightAware Transoceanic
08:30AM 34.0051 -69.9938 168° South 424 488 35,000  Level FlightAware Transoceanic
08:31AM 33.8876 -69.9641 168° South 424 488 35,000  Level FlightAware Transoceanic
08:32AM 33.7701 -69.9344 168° South 424 488 35,000  Level FlightAware Transoceanic
08:33AM 33.6526 -69.9049 168° South 424 488 35,000  Level FlightAware Transoceanic
08:34AM 33.5351 -69.8754 168° South 424 488 35,000  Level FlightAware Transoceanic
08:35AM 33.4175 -69.8460 168° South 424 488 35,000  Level FlightAware Transoceanic
08:36AM 33.3000 -69.8167 168° South 424 488 35,000  Level FlightAware Transoceanic
08:37AM 33.1858 -69.7882 168° South 424 488 35,000  Level FlightAware Transoceanic
08:38AM 33.0715 -69.7598 168° South 424 488 35,000  Level FlightAware Transoceanic
08:39AM 32.9573 -69.7314 168° South 424 488 35,000  Level FlightAware Transoceanic
08:40AM 32.8431 -69.7032 168° South 424 488 35,000  Level FlightAware Transoceanic
08:41AM 32.7288 -69.6750 168° South 424 488 35,000  Level FlightAware Transoceanic
08:42AM 32.6146 -69.6468 168° South 424 488 35,000  Level FlightAware Transoceanic
08:43AM 32.5003 -69.6188 168° South 424 488 35,000  Level FlightAware Transoceanic
08:44AM 32.3860 -69.5908 168° South 424 488 35,000  Level FlightAware Transoceanic
08:45AM 32.2718 -69.5629 168° South 424 488 35,000  Level FlightAware Transoceanic
08:46AM 32.1575 -69.5351 168° South 424 488 35,000  Level FlightAware Transoceanic
08:47AM 32.0432 -69.5073 168° South 424 488 35,000  Level FlightAware Transoceanic
08:48AM 31.9289 -69.4796 168° South 424 488 35,000  Level FlightAware Transoceanic
08:49AM 31.8146 -69.4520 168° South 424 488 35,000  Level FlightAware Transoceanic
08:50AM 31.7003 -69.4244 168° South 424 488 35,000  Level FlightAware Transoceanic
08:51AM 31.5860 -69.3969 168° South 424 488 35,000  Level FlightAware Transoceanic
08:52AM 31.4717 -69.3695 168° South 424 488 35,000  Level FlightAware Transoceanic
08:53AM 31.3573 -69.3421 168° South 424 488 35,000  Level FlightAware Transoceanic
08:54AM 31.2430 -69.3148 168° South 424 488 35,000  Level FlightAware Transoceanic
08:55AM 31.1287 -69.2876 168° South 424 488 35,000  Level FlightAware Transoceanic
08:56AM 31.0144 -69.2604 169° South 424 488 35,000  Level FlightAware Transoceanic
08:57AM 30.9020 -69.2174 162° South  Level FlightAware Approximate
08:58AM 30.8998 -69.2166 169° South  Level FlightAware Approximate
08:58AM 30.9000 -69.2333 168° South 471 542 35,000  Level New York Oceanic (ODAPS)
08:59AM 30.7838 -69.1892 169° South  Level FlightAware Approximate
09:00AM 30.6679 -69.1618 169° South  Level FlightAware Approximate
09:01AM 30.5520 -69.1345 169° South  Level FlightAware Approximate
09:02AM 30.4360 -69.1072 169° South  Level FlightAware Approximate
09:03AM 30.3201 -69.0800 169° South  Level FlightAware Approximate
09:04AM 29.8998 -68.9974 169° South 471 542 35,000  Level FlightAware Transoceanic
09:05AM 29.7747 -68.9682 169° South 471 542 35,000  Level FlightAware Transoceanic
09:06AM 29.6497 -68.9391 169° South 471 542 35,000  Level FlightAware Transoceanic
09:07AM 29.5246 -68.9101 169° South 471 542 35,000  Level FlightAware Transoceanic
09:08AM 29.3995 -68.8812 169° South 471 542 35,000  Level FlightAware Transoceanic
09:09AM 29.2745 -68.8523 169° South 471 542 35,000  Level FlightAware Transoceanic
09:10AM 29.1494 -68.8235 169° South 471 542 35,000  Level FlightAware Transoceanic
09:11AM 29.0243 -68.7948 169° South 471 542 35,000  Level FlightAware Transoceanic
09:12AM 28.8992 -68.7661 169° South 471 542 35,000  Level FlightAware Transoceanic
09:13AM 28.7741 -68.7375 169° South 471 542 35,000  Level FlightAware Transoceanic
09:14AM 28.6490 -68.7090 169° South 471 542 35,000  Level FlightAware Transoceanic
09:15AM 28.5239 -68.6805 169° South 471 542 35,000  Level FlightAware Transoceanic
09:16AM 28.3987 -68.6521 169° South 471 542 35,000  Level FlightAware Transoceanic
09:17AM 28.2736 -68.6238 169° South 471 542 35,000  Level FlightAware Transoceanic
09:18AM 28.1485 -68.5956 169° South 471 542 35,000  Level FlightAware Transoceanic
09:19AM 28.0233 -68.5674 169° South 471 542 35,000  Level FlightAware Transoceanic
09:20AM 27.8982 -68.5392 169° South 471 542 35,000  Level FlightAware Transoceanic
09:20AM 27.9333 -68.5333 169° South 450 518 35,000  Level New York Oceanic (ODAPS)
09:21AM 27.7730 -68.5112 169° South 471 542 35,000  Level FlightAware Transoceanic
09:22AM 27.6479 -68.4832 169° South 471 542 35,000  Level FlightAware Transoceanic
09:23AM 27.5227 -68.4553 169° South 471 542 35,000  Level FlightAware Transoceanic
09:24AM 27.3976 -68.4274 169° South 471 542 35,000  Level FlightAware Transoceanic
09:25AM 27.2724 -68.3996 169° South 471 542 35,000  Level FlightAware Transoceanic
09:26AM 27.1472 -68.3718 169° South 471 542 35,000  Level FlightAware Transoceanic
09:27AM 26.9560 -68.3196 169° South 450 518 35,000  Level FlightAware Transoceanic
09:28AM 26.8338 -68.2931 169° South 450 518 35,000  Level FlightAware Transoceanic
09:29AM 26.7116 -68.2667 169° South 450 518 35,000  Level FlightAware Transoceanic
09:30AM 26.5894 -68.2403 169° South 450 518 35,000  Level FlightAware Transoceanic
09:31AM 26.4672 -68.2141 169° South 450 518 35,000  Level FlightAware Transoceanic
09:32AM 26.3450 -68.1878 169° South 450 518 35,000  Level FlightAware Transoceanic
09:33AM 26.2227 -68.1617 169° South 450 518 35,000  Level FlightAware Transoceanic
09:34AM 26.1005 -68.1355 169° South 450 518 35,000  Level FlightAware Transoceanic
09:35AM 25.9783 -68.1095 169° South 450 518 35,000  Level FlightAware Transoceanic
09:36AM 25.8561 -68.0834 169° South 450 518 35,000  Level FlightAware Transoceanic
09:37AM 25.7338 -68.0575 169° South 450 518 35,000  Level FlightAware Transoceanic
09:38AM 25.6116 -68.0316 169° South 450 518 35,000  Level FlightAware Transoceanic
09:39AM 25.4893 -68.0057 169° South 450 518 35,000  Level FlightAware Transoceanic
09:40AM 25.3671 -67.9799 169° South 450 518 35,000  Level FlightAware Transoceanic
09:41AM 25.2449 -67.9542 169° South 450 518 35,000  Level FlightAware Transoceanic
09:42AM 25.1226 -67.9285 169° South 450 518 35,000  Level FlightAware Transoceanic
09:42AM 25.4667 -68.0000 169° South 438 504 35,000  Level New York Oceanic (ODAPS)
09:43AM 25.0003 -67.9028 169° South 450 518 35,000  Level FlightAware Transoceanic
09:44AM 24.8781 -67.8772 169° South 450 518 35,000  Level FlightAware Transoceanic
09:45AM 24.7558 -67.8517 169° South 450 518 35,000  Level FlightAware Transoceanic
09:46AM 24.6335 -67.8262 169° South 450 518 35,000  Level FlightAware Transoceanic
09:47AM 24.5112 -67.8007 169° South 450 518 35,000  Level FlightAware Transoceanic
09:48AM 24.3867 -67.7748 169° South 438 504 35,000  Level FlightAware Transoceanic
09:49AM 24.2667 -67.7500 169° South 438 504 35,000  Level FlightAware Transoceanic
09:50AM 24.1462 -67.7245 169° South 438 504 35,000  Level FlightAware Transoceanic
09:51AM 24.0258 -67.6991 169° South 438 504 35,000  Level FlightAware Transoceanic
09:52AM 23.9054 -67.6737 169° South 438 504 35,000  Level FlightAware Transoceanic
09:53AM 23.7850 -67.6484 169° South 438 504 35,000  Level FlightAware Transoceanic
09:54AM 23.6646 -67.6231 169° South 438 504 35,000  Level FlightAware Transoceanic
09:55AM 23.5441 -67.5978 169° South 438 504 35,000  Level FlightAware Transoceanic
09:56AM 23.4237 -67.5726 169° South 438 504 35,000  Level FlightAware Transoceanic
09:56AM 23.3833 -67.6000 169° South 450 518 35,000  Level San Juan Center
09:57AM 23.3032 -67.5475 169° South 438 504 35,000  Level FlightAware Transoceanic
09:57AM 23.2667 -67.5667 165° South 450 518 35,000  Level San Juan Center
09:58AM 23.1828 -67.5224 169° South 438 504 35,000  Level FlightAware Transoceanic
09:58AM 23.1333 -67.5333 167° South 450 518 35,000  Level San Juan Center
09:59AM 23.0624 -67.4973 169° South 438 504 35,000  Level FlightAware Transoceanic
09:59AM 23.0167 -67.5167 173° South 440 506 35,000  Level San Juan Center
10:00AM 22.9419 -67.4723 169° South 438 504 35,000  Level FlightAware Transoceanic
10:00AM 22.9000 -67.4833 165° South 440 506 35,000  Level San Juan Center
10:01AM 22.8214 -67.4473 169° South 438 504 35,000  Level FlightAware Transoceanic
10:01AM 22.7667 -67.4667 173° South 440 506 35,000  Level San Juan Center
10:02AM 22.6500 -67.4333 165° South 450 518 35,000  Level San Juan Center
10:03AM 22.5333 -67.4167 172° South 440 506 35,000  Level San Juan Center
10:04AM 22.4000 -67.3833 167° South 440 506 35,000  Level San Juan Center
10:05AM 22.2833 -67.3667 172° South 450 518 35,000  Level San Juan Center
10:06AM 22.1500 -67.3333 167° South 450 518 35,000  Level San Juan Center
10:07AM 22.0333 -67.3167 172° South 450 518 35,000  Level San Juan Center
10:08AM 21.9167 -67.2833 165° South 440 506 35,000  Level San Juan Center
10:09AM 21.7833 -67.2667 173° South 450 518 35,000  Level San Juan Center
10:10AM 21.6833 -67.2500 171° South 460 529 35,000  Level San Juan Center
10:11AM 21.5333 -67.2167 168° South 450 518 35,000  Level San Juan Center
10:12AM 21.4167 -67.1833 165° South 450 518 35,100  Climbing San Juan Center
10:13AM 21.3000 -67.1833 180° South 420 483 35,100  Level San Juan Center
10:14AM 21.1667 -67.2000 187° South 430 495 35,100  Level San Juan Center
10:15AM 21.0500 -67.2000 180° South 420 483 35,100  Level San Juan Center
10:16AM 20.9333 -67.2167 188° South 430 495 35,100  Level San Juan Center
10:17AM 20.8167 -67.2167 180° South 430 495 35,100  Level San Juan Center
10:18AM 20.7000 -67.2333 188° South 430 495 35,100  Level San Juan Center
10:19AM 20.5667 -67.2333 180° South 430 495 35,100  Level San Juan Center
10:20AM 20.4500 -67.2333 180° South 430 495 35,100  Level San Juan Center
10:21AM 20.3333 -67.2500 188° South 430 495 35,100  Level San Juan Center
10:22AM 20.2167 -67.2500 180° South 440 506 35,100  Level San Juan Center
10:23AM 20.0833 -67.2667 187° South 430 495 35,100  Level San Juan Center
10:24AM 19.9667 -67.2667 180° South 430 495 35,100  Level San Juan Center
10:25AM 19.8500 -67.2667 180° South 440 506 35,100  Level San Juan Center
10:26AM 19.7167 -67.2833 187° South 440 506 35,100  Level San Juan Center
10:27AM 19.6000 -67.2833 180° South 440 506 35,100  Level San Juan Center
10:28AM 19.4833 -67.3000 188° South 430 495 35,100  Level San Juan Center
10:29AM 19.3667 -67.3000 180° South 430 495 35,100  Level San Juan Center
10:30AM 19.2333 -67.3167 187° South 430 495 35,100  Level San Juan Center
10:31AM 19.1167 -67.3167 180° South 440 506 35,100  Level San Juan Center
10:32AM 19.0000 -67.3167 180° South 440 506 35,100  Level San Juan Center
10:33AM 18.8667 -67.3333 187° South 440 506 35,100  Level San Juan Center
10:34AM 18.7500 -67.3333 180° South 440 506 35,100  Level San Juan Center
10:35AM 18.6333 -67.3333 180° South 440 506 35,100 420 Level San Juan Center
10:36AM 18.5000 -67.3500 187° South 440 506 36,000 420 Climbing San Juan Center
10:37AM 18.3833 -67.3500 180° South 440 506 36,000  Level San Juan Center
10:38AM 18.2667 -67.3667 188° South 440 506 36,000  Level San Juan Center
10:39AM 18.1333 -67.3667 180° South 440 506 36,000  Level San Juan Center
10:40AM 18.0167 -67.3667 180° South 440 506 36,000  Level San Juan Center
10:41AM 17.8667 -67.3833 186° South 450 518 36,000  Level San Juan Center
10:42AM 17.7500 -67.3833 180° South 450 518 36,000  Level San Juan Center
10:43AM 17.6167 -67.3833 180° South 450 518 36,000  Level San Juan Center
10:44AM 17.5000 -67.4000 188° South 450 518 36,000  Level San Juan Center
10:45AM 17.3667 -67.4000 180° South 440 506 36,000  Level San Juan Center
10:46AM 17.2500 -67.4167 188° South 450 518 36,000  Level San Juan Center
10:47AM 17.1333 -67.4500 195° South 440 506 36,000  Level San Juan Center
10:48AM 17.0167 -67.4667 188° South 430 495 36,000  Level San Juan Center
10:49AM 16.8833 -67.4500 173° South 450 518 36,000  Level San Juan Center
10:50AM 16.7500 -67.4500 180° South 460 529 36,000  Level San Juan Center
10:51AM 16.6333 -67.4500 180° South 450 518 36,000  Level San Juan Center
10:52AM 16.5000 -67.4667 187° South 440 506 36,000  Level San Juan Center
10:53AM 16.3833 -67.4667 180° South 440 506 36,000  Level San Juan Center
10:54AM 16.2500 -67.4667 180° South 440 506 36,000  Level San Juan Center
10:55AM 16.1333 -67.4667 180° South 440 506 36,000  Level San Juan Center
10:56AM 16.0167 -67.4667 180° South 440 506 36,000  Level San Juan Center
10:57AM 15.9167 -67.4667 180° South 440 506 36,000  Level San Juan Center
10:59AM 15.7526 -67.5270 202° Southwest  Level FlightAware Approximate
11:06AM 14.9810 -67.8510 202° Southwest  Level FlightAware Approximate
11:07AM 14.8708 -67.8971 202° Southwest  Level FlightAware Approximate
11:08AM 14.7605 -67.9432 202° Southwest  Level FlightAware Approximate
11:09AM 14.6502 -67.9892 202° Southwest  Level FlightAware Approximate
11:10AM 14.5399 -68.0351 202° Southwest  Level FlightAware Approximate
11:11AM 14.4296 -68.0810 202° Southwest  Level FlightAware Approximate
11:12AM 14.3193 -68.1269 202° Southwest  Level FlightAware Approximate
11:13AM 14.2090 -68.1727 202° Southwest  Level FlightAware Approximate
11:14AM 14.1207 -68.2518 227° Southwest  Level FlightAware Approximate
11:15AM 14.0390 -68.3409 227° Southwest  Level FlightAware Approximate
11:16AM 13.9554 -68.4280 224° Southwest  Level FlightAware Approximate
11:17AM 13.8701 -68.5134 224° Southwest  Level FlightAware Approximate
11:18AM 13.7847 -68.5986 224° Southwest  Level FlightAware Approximate
11:19AM 13.7031 -68.6871 236° Southwest  Level FlightAware Approximate
11:20AM 13.6204 -68.7739 221° Southwest  Level FlightAware Approximate
11:21AM 13.5312 -68.8549 221° Southwest  Level FlightAware Approximate
11:22AM 13.4473 -68.9414 227° Southwest  Level FlightAware Approximate
11:23AM 13.3661 -69.0307 227° Southwest  Level FlightAware Approximate
11:24AM 13.2838 -69.1189 226° Southwest  Level FlightAware Approximate
11:25AM 13.2008 -69.2064 226° Southwest  Level FlightAware Approximate
11:26AM 13.1177 -69.2938 226° Southwest  Level FlightAware Approximate
11:27AM 13.0346 -69.3811 226° Southwest  Level FlightAware Approximate
11:28AM 12.9544 -69.4712 228° Southwest  Level FlightAware Approximate
11:29AM 12.8718 -69.5587 221° Southwest  Level FlightAware Approximate
11:30AM 12.7825 -69.6392 221° Southwest  Level FlightAware Approximate
11:31AM 12.6980 -69.7246 229° Southwest  Level FlightAware Approximate
11:32AM 12.6140 -69.8035 232° Southwest  Level FlightAware Approximate
11:33AM 12.5372 -69.8961 224° Southwest  Level FlightAware Approximate
11:34AM 12.5000 -70.0019 270° West  Level FlightAware Approximate
11:35AM 12.5000 -70.0167 270° West  Level FlightAware Approximate
11:36AM 12.5014 -70.0152 270° West  Level Estimated
11:37AM 12.5000 -70.0167 270° West  Level FlightAware Approximate
11:38AM 12.5014 -70.0152 270° West  Level Estimated
11:39AM 12.5000 -70.0167 270° West  Level FlightAware Approximate